If you wish to contribute or participate in the discussions about articles you are invited to join SKYbrary as a registered user

 Actions

Angers-Loire Airport

From SKYbrary Wiki

LFJR
Airport
ICAO: LFJR – IATA: ANE
Summary
Name Angers-Loire Airport
Region Europe
Territory France FR.gif
Location Marcé, Pays de la Loire
Serving Angers
Elevation 59.131 m
194 ft
194 ft59.131 m
Type medium airport
Coordinates 47° 33' 37.08", -0° 18' 43.9992"
Runways
Designator Length Width Surface ROPS
8/26 1800 m5,905.512 ft 45 m147.638 ft ASP yes/yes
METAR
Observation LFJR 132200Z AUTO 25017KT 9999 FEW028 OVC220 10/05 Q1005
Station MARCE
Date/Time 13 December 2017 22:00:00
Wind direction 250°
Wind speed 17 kts
Lowest cloud amount few clouds
Temperature 10°C
Dew point 5°C
Humidity 71%
QNH 1005 hPa
Weather condition n/a

Maps

Terrain

Loading map...

Airport Layout

Loading map...


Accidents & Serious Incidents at or in vicinity of LFJR

None on SKYbrary